Time;durP1;ratioP1;P1;durP2;ratioP2;P2;SDS_P1;SDS_P2;PMS_P1;PMS_P2;Temp;Humidity;BMP_temperature;BMP_pressure;BME280_temperature;BME280_humidity;BME280_pressure;Samples;Min_cycle;Max_cycle;Signal;HPM_P1;HPM_P2
2022/02/06 00:02:14;;;;;;;0.40;0.20;;;;;;;5.19;90.66;100503.09;5052758;28;20982;-73
2022/02/06 00:04:42;;;;;;;0.40;0.30;;;;;;;5.19;90.51;100495.06;5053410;28;20430;-73
2022/02/06 00:07:10;;;;;;;0.40;0.30;;;;;;;5.27;89.14;100506.06;5052994;28;21022;-74
2022/02/06 00:09:37;;;;;;;0.40;0.20;;;;;;;5.30;88.00;100484.03;5053075;28;20450;-74
2022/02/06 00:12:04;;;;;;;0.40;0.30;;;;;;;5.36;87.66;100479.47;5052650;28;21007;-74
2022/02/06 00:14:30;;;;;;;0.40;0.30;;;;;;;5.45;85.70;100485.13;5053046;28;20794;-74
2022/02/06 00:16:57;;;;;;;0.40;0.30;;;;;;;5.48;84.61;100482.69;5053057;28;20464;-73
2022/02/06 00:19:23;;;;;;;0.40;0.30;;;;;;;5.53;84.39;100481.88;5052985;28;20453;-73
2022/02/06 00:21:50;;;;;;;0.40;0.30;;;;;;;5.56;84.37;100474.09;5052925;28;20469;-74
2022/02/06 00:24:25;;;;;;;0.40;0.30;;;;;;;5.62;84.24;100456.06;5052587;28;20450;-73
2022/02/06 00:26:59;;;;;;;0.40;0.20;;;;;;;5.67;83.35;100464.16;5054538;28;20437;-74
2022/02/06 00:29:35;;;;;;;0.40;0.30;;;;;;;5.71;83.50;100457.16;5056882;28;20438;-73
2022/02/06 00:32:06;;;;;;;0.40;0.20;;;;;;;5.68;83.82;100455.00;5056429;28;21006;-74
2022/02/06 00:40:02;;;;;;;0.40;0.20;;;;;;;5.83;81.46;100432.66;5056706;28;20417;-74
2022/02/06 00:42:28;;;;;;;0.40;0.20;;;;;;;5.90;81.77;100432.38;5056330;28;20955;-74
2022/02/06 00:44:55;;;;;;;0.40;0.30;;;;;;;5.91;80.95;100429.41;5056622;28;20438;-74
2022/02/06 00:47:22;;;;;;;0.40;0.20;;;;;;;5.90;80.76;100421.63;5056553;28;20476;-74
2022/02/06 00:49:49;;;;;;;0.40;0.30;;;;;;;5.96;81.00;100417.88;5056534;28;21014;-75
2022/02/06 00:52:21;;;;;;;0.40;0.30;;;;;;;6.01;79.82;100409.78;5056377;28;20482;-74
2022/02/06 00:54:48;;;;;;;0.40;0.20;;;;;;;5.95;80.17;100392.88;5056144;28;20782;-75
2022/02/06 00:57:15;;;;;;;0.40;0.27;;;;;;;6.00;79.79;100400.09;5056433;28;20449;-74
2022/02/06 00:59:43;;;;;;;0.40;0.20;;;;;;;6.03;79.23;100386.13;5056330;28;20446;-74
2022/02/06 01:02:09;;;;;;;0.40;0.20;;;;;;;6.04;79.11;100391.22;5056166;28;20458;-75
2022/02/06 01:04:36;;;;;;;0.40;0.30;;;;;;;6.12;78.75;100381.78;5056232;28;20446;-74
2022/02/06 01:07:03;;;;;;;0.40;0.20;;;;;;;6.12;79.62;100386.34;5056444;28;20453;-74
2022/02/06 01:09:30;;;;;;;0.40;0.20;;;;;;;6.07;79.68;100379.94;5056127;28;20446;-75
2022/02/06 01:11:57;;;;;;;0.40;0.30;;;;;;;6.14;78.67;100366.16;5055964;28;20461;-74
2022/02/06 01:14:38;;;;;;;0.40;0.30;;;;;;;6.21;78.13;100371.25;5055669;28;20461;-74
2022/02/06 01:17:17;;;;;;;0.40;0.30;;;;;;;6.24;78.63;100359.91;5056069;28;20462;-74
2022/02/06 01:19:53;;;;;;;0.40;0.30;;;;;;;6.24;78.95;100357.22;5055919;28;20816;-74
2022/02/06 01:22:23;;;;;;;0.40;0.30;;;;;;;6.27;77.99;100352.09;5055932;28;20418;-74
2022/02/06 01:24:58;;;;;;;0.40;0.20;;;;;;;6.31;77.44;100338.91;5055575;28;20939;-74
2022/02/06 01:27:35;;;;;;;0.40;0.20;;;;;;;6.35;77.92;100341.84;5056085;28;20441;-74
2022/02/06 01:30:12;;;;;;;0.40;0.30;;;;;;;6.37;77.26;100331.59;5055824;28;20460;-74
2022/02/06 01:32:45;;;;;;;0.40;0.30;;;;;;;6.37;78.57;100332.41;5055703;28;20509;-74
2022/02/06 01:35:16;;;;;;;0.40;0.30;;;;;;;6.41;78.07;100338.03;5055656;28;20813;-75
2022/02/06 01:37:48;;;;;;;0.40;0.20;;;;;;;6.45;77.46;100320.25;5055254;28;20427;-74
2022/02/06 01:40:27;;;;;;;0.40;0.30;;;;;;;6.45;77.30;100315.69;5055222;28;20466;-74
2022/02/06 01:43:00;;;;;;;0.40;0.30;;;;;;;6.48;77.55;100319.72;5055314;28;20429;-74
2022/02/06 01:45:38;;;;;;;0.40;0.30;;;;;;;6.46;77.69;100305.72;5055634;28;20799;-75
2022/02/06 02:04:35;;;;;;;0.40;0.20;;;;;;;6.22;81.45;100278.72;5053742;28;20817;-76
2022/02/06 02:12:51;;;;;;;0.40;0.20;;;;;;;6.21;83.41;100261.78;5049040;28;20500;-76
2022/02/06 02:18:38;;;;;;;0.40;0.30;;;;;;;6.11;84.19;100235.00;5054908;28;20413;-75
2022/02/06 02:21:42;;;;;;;0.40;0.20;;;;;;;6.07;84.53;100223.19;5054374;28;20509;-75
2022/02/06 02:24:25;;;;;;;0.40;0.20;;;;;;;6.03;86.26;100227.50;5054776;28;20446;-76
2022/02/06 02:27:02;;;;;;;0.40;0.30;;;;;;;5.94;87.38;100213.06;5054753;28;20435;-76
2022/02/06 02:46:28;;;;;;;0.40;0.30;;;;;;;5.39;95.82;100183.50;5032048;28;20474;-76
2022/02/06 02:48:57;;;;;;;0.40;0.30;;;;;;;5.32;95.77;100175.75;5032034;28;20427;-76
2022/02/06 02:51:26;;;;;;;0.40;0.30;;;;;;;5.28;97.58;100181.97;5042802;28;20532;-76
2022/02/06 02:53:57;;;;;;;0.40;0.30;;;;;;;5.22;98.46;100172.31;5054152;28;20481;-75
2022/02/06 02:56:36;;;;;;;0.40;0.20;;;;;;;5.16;99.47;100155.41;5054185;28;20458;-75
2022/02/06 02:59:09;;;;;;;0.40;0.30;;;;;;;5.15;99.21;100163.75;5054077;28;20525;-72
2022/02/06 03:01:41;;;;;;;0.40;0.30;;;;;;;5.13;99.25;100153.28;5054027;28;20466;-73
2022/02/06 03:04:07;;;;;;;0.40;0.20;;;;;;;5.11;99.69;100147.41;5054000;28;20426;-73
2022/02/06 03:06:34;;;;;;;0.40;0.30;;;;;;;5.05;100.00;100156.56;5053960;28;20469;-74
2022/02/06 03:09:02;;;;;;;0.40;0.30;;;;;;;5.00;100.00;100148.50;5053855;28;20447;-73
2022/02/06 03:11:29;;;;;;;0.40;0.20;;;;;;;4.98;100.00;100137.25;5053750;28;20557;-73
2022/02/06 03:14:02;;;;;;;0.40;0.30;;;;;;;4.91;100.00;100126.00;5053773;28;20478;-73
2022/02/06 03:16:33;;;;;;;0.40;0.30;;;;;;;4.92;100.00;100122.25;5053858;28;20426;-73
2022/02/06 03:19:05;;;;;;;0.40;0.40;;;;;;;4.91;100.00;100109.91;5054046;28;20430;-73
2022/02/06 03:21:32;;;;;;;0.40;0.20;;;;;;;4.91;100.00;100097.28;5053653;28;20466;-73
2022/02/06 03:24:10;;;;;;;0.40;0.30;;;;;;;4.92;100.00;100098.91;5053344;28;20837;-73
2022/02/06 03:26:37;;;;;;;0.40;0.20;;;;;;;4.91;100.00;100091.13;5053872;28;20435;-74
2022/02/06 03:29:04;;;;;;;0.40;0.30;;;;;;;4.92;100.00;100098.91;5053578;28;20435;-73
2022/02/06 03:31:30;;;;;;;0.40;0.30;;;;;;;4.92;100.00;100088.16;5053532;28;20520;-73
2022/02/06 03:33:57;;;;;;;0.40;0.30;;;;;;;4.94;100.00;100079.84;5053457;28;20891;-73
2022/02/06 03:36:23;;;;;;;0.40;0.30;;;;;;;4.94;100.00;100082.53;5053391;28;20457;-71
2022/02/06 03:38:52;;;;;;;0.40;0.30;;;;;;;4.90;100.00;100074.22;5053461;28;20453;-71
2022/02/06 03:41:18;;;;;;;0.40;0.20;;;;;;;4.92;100.00;100073.97;5053341;28;20470;-71
2022/02/06 03:43:55;;;;;;;0.40;0.20;;;;;;;4.92;100.00;100065.91;5053401;28;20536;-71
2022/02/06 03:46:28;;;;;;;0.40;0.30;;;;;;;4.94;100.00;100067.22;5053364;28;20475;-70
2022/02/06 03:49:02;;;;;;;0.40;0.30;;;;;;;4.92;100.00;100063.22;5053134;28;20466;-70
2022/02/06 03:51:32;;;;;;;0.40;0.30;;;;;;;4.92;100.00;100065.91;5052943;28;20998;-70
2022/02/06 03:53:59;;;;;;;0.40;0.30;;;;;;;4.89;100.00;100040.41;5053184;28;21101;-71
2022/02/06 03:56:27;;;;;;;0.40;0.30;;;;;;;4.88;100.00;100052.22;5053240;28;20442;-71
2022/02/06 03:58:55;;;;;;;0.40;0.30;;;;;;;4.89;100.00;100053.03;5053212;28;20438;-71
2022/02/06 04:01:22;;;;;;;0.40;0.23;;;;;;;4.84;100.00;100043.13;5052529;28;20462;-71
2022/02/06 04:03:48;;;;;;;0.40;0.20;;;;;;;4.82;100.00;100050.63;5053169;28;20442;-71
2022/02/06 04:06:15;;;;;;;0.40;0.20;;;;;;;4.84;100.00;100039.66;5053120;28;20453;-71
2022/02/06 04:08:43;;;;;;;0.40;0.30;;;;;;;4.85;100.00;100030.50;5053128;28;20449;-71
2022/02/06 04:11:14;;;;;;;0.40;0.20;;;;;;;4.88;100.00;100016.56;5053246;28;20502;-72
2022/02/06 04:13:53;;;;;;;0.40;0.30;;;;;;;4.90;100.00;100025.13;5052965;28;20466;-72
2022/02/06 04:16:26;;;;;;;0.40;0.20;;;;;;;4.89;100.00;100020.84;5053266;28;20436;-71
2022/02/06 04:19:04;;;;;;;0.40;0.30;;;;;;;4.90;100.00;100011.69;5053028;28;20493;-71
2022/02/06 04:21:31;;;;;;;0.40;0.30;;;;;;;4.90;100.00;100011.69;5052989;28;20462;-71
2022/02/06 04:23:58;;;;;;;0.40;0.30;;;;;;;4.87;100.00;99998.81;5053010;28;20858;-72
2022/02/06 04:26:24;;;;;;;0.40;0.30;;;;;;;4.85;100.00;99995.63;5052911;28;20438;-72
2022/02/06 04:28:50;;;;;;;0.40;0.20;;;;;;;4.87;100.00;99986.25;5052903;28;20500;-72
2022/02/06 04:31:17;;;;;;;0.40;0.20;;;;;;;4.93;100.00;99992.38;5052830;28;20853;-72
2022/02/06 04:33:45;;;;;;;0.40;0.30;;;;;;;4.96;100.00;99970.34;5053080;28;20486;-72
2022/02/06 04:36:13;;;;;;;0.40;0.30;;;;;;;4.97;100.00;99972.75;5052548;28;20458;-72
2022/02/06 04:38:51;;;;;;;0.40;0.20;;;;;;;5.00;100.00;99966.00;5052788;28;20500;-71
2022/02/06 04:41:41;;;;;;;0.40;0.20;;;;;;;5.03;100.00;99968.13;5052738;28;20556;-72
2022/02/06 04:44:40;;;;;;;0.97;0.93;;;;;;;5.06;100.00;99962.22;5052758;28;20422;-72
2022/02/06 04:47:58;;;;;;;0.40;0.20;;;;;;;5.07;100.00;99945.03;5052748;28;20450;-71
2022/02/06 04:53:40;;;;;;;0.40;0.20;;;;;;;5.04;100.00;99948.25;5052015;28;20977;-71
2022/02/06 05:15:28;;;;;;;0.40;0.30;;;;;;;5.01;100.00;99911.28;5055813;28;20478;-71
2022/02/06 05:21:03;;;;;;;0.40;0.30;;;;;;;5.02;100.00;99896.75;5054585;28;20466;-71
2022/02/06 05:26:35;;;;;;;0.40;0.20;;;;;;;5.01;100.00;99893.28;5054497;28;20962;-71
2022/02/06 05:29:06;;;;;;;0.40;0.27;;;;;;;5.03;100.00;99891.09;5055812;28;20496;-71
2022/02/06 05:31:41;;;;;;;0.40;0.20;;;;;;;5.01;100.00;99887.91;5057130;28;20474;-71
2022/02/06 05:34:08;;;;;;;0.40;0.30;;;;;;;5.04;100.00;99883.84;5055715;28;20472;-72
2022/02/06 05:36:34;;;;;;;0.40;0.30;;;;;;;5.06;100.00;99884.38;5055333;28;20461;-71
2022/02/06 05:39:02;;;;;;;0.40;0.30;;;;;;;5.06;100.00;99881.69;5055600;28;20438;-72
2022/02/06 05:41:29;;;;;;;0.40;0.30;;;;;;;5.04;100.00;99870.44;5055480;28;21105;-72
2022/02/06 05:43:56;;;;;;;0.40;0.30;;;;;;;5.05;100.00;99874.75;5055536;28;20516;-71
2022/02/06 05:46:22;;;;;;;0.40;0.30;;;;;;;5.06;100.00;99868.28;5055535;28;20442;-71
2022/02/06 05:48:49;;;;;;;0.40;0.30;;;;;;;5.07;100.00;99861.81;5055494;28;20450;-71
2022/02/06 05:51:15;;;;;;;0.40;0.23;;;;;;;5.08;100.00;99863.41;5055342;28;20480;-70
2022/02/06 05:53:42;;;;;;;0.40;0.30;;;;;;;5.06;100.00;99865.59;5055283;28;20481;-72
2022/02/06 05:56:10;;;;;;;0.40;0.20;;;;;;;5.04;100.00;99860.50;5054986;28;20981;-72
2022/02/06 05:58:37;;;;;;;0.40;0.20;;;;;;;5.07;100.00;99861.81;5054982;28;20974;-73
2022/02/06 06:01:04;;;;;;;0.40;0.30;;;;;;;5.06;100.00;99849.50;5055129;28;20881;-72
2022/02/06 06:03:30;;;;;;;0.40;0.30;;;;;;;5.07;100.00;99848.41;5055267;28;20494;-72
2022/02/06 06:05:57;;;;;;;0.40;0.30;;;;;;;5.05;100.00;99850.59;5055193;28;20513;-72
2022/02/06 06:08:23;;;;;;;0.40;0.30;;;;;;;5.03;100.00;99850.06;5055255;28;20458;-73
2022/02/06 06:10:50;;;;;;;0.40;0.30;;;;;;;5.04;100.00;99840.91;5054703;28;20474;-72
2022/02/06 06:13:17;;;;;;;0.40;0.30;;;;;;;5.02;100.00;99838.53;5054921;28;20445;-72
2022/02/06 06:15:44;;;;;;;0.40;0.30;;;;;;;5.06;100.00;99836.88;5054982;28;20537;-72
2022/02/06 06:18:13;;;;;;;0.40;0.30;;;;;;;5.04;100.00;99828.28;5054912;28;20457;-72
2022/02/06 06:20:42;;;;;;;0.40;0.30;;;;;;;5.06;100.00;99838.75;5054813;28;20553;-72
2022/02/06 06:23:08;;;;;;;0.40;0.20;;;;;;;5.09;100.00;99827.47;5054910;28;20473;-72
2022/02/06 06:25:38;;;;;;;0.40;0.23;;;;;;;5.07;100.00;99825.03;5054371;28;20446;-72
2022/02/06 06:28:05;;;;;;;0.40;0.20;;;;;;;5.09;100.00;99835.53;5054581;28;20470;-70
2022/02/06 06:30:35;;;;;;;0.40;0.30;;;;;;;5.08;100.00;99817.78;5054489;28;20454;-73
2022/02/06 06:33:01;;;;;;;0.40;0.20;;;;;;;5.09;100.00;99810.53;5054631;28;20441;-73
2022/02/06 06:35:29;;;;;;;0.40;0.30;;;;;;;5.12;100.00;99805.41;5054337;28;20493;-73
2022/02/06 06:37:58;;;;;;;0.40;0.20;;;;;;;5.11;100.00;99803.81;5054613;28;20434;-72
2022/02/06 06:40:24;;;;;;;0.40;0.30;;;;;;;5.12;100.00;99800.03;5054396;28;20466;-72
2022/02/06 06:42:50;;;;;;;0.40;0.30;;;;;;;5.12;100.00;99797.34;5054432;28;20438;-72
2022/02/06 06:45:17;;;;;;;0.40;0.27;;;;;;;5.11;100.00;99803.81;5054346;28;20446;-72
2022/02/06 06:47:52;;;;;;;0.40;0.20;;;;;;;5.12;100.00;99799.25;5054351;28;20499;-72
2022/02/06 06:50:19;;;;;;;0.40;0.30;;;;;;;5.12;100.00;99805.41;5054238;28;20493;-72
2022/02/06 06:52:46;;;;;;;0.40;0.20;;;;;;;5.13;100.00;99788.22;5054263;28;20445;-72
2022/02/06 06:55:16;;;;;;;0.40;0.30;;;;;;;5.16;100.00;99794.91;5054066;28;20493;-72
2022/02/06 06:57:50;;;;;;;0.40;0.30;;;;;;;5.13;100.00;99785.53;5054481;28;20446;-72
2022/02/06 07:00:36;;;;;;;0.40;0.30;;;;;;;5.13;100.00;99780.16;5054057;28;20512;-72
2022/02/06 07:03:04;;;;;;;0.40;0.30;;;;;;;5.15;100.00;99782.56;5053792;28;20800;-72
2022/02/06 07:05:31;;;;;;;0.40;0.30;;;;;;;5.15;100.00;99783.38;5054009;28;20441;-72
2022/02/06 07:07:58;;;;;;;0.40;0.20;;;;;;;5.16;100.00;99781.50;5053986;28;20438;-72
2022/02/06 07:10:24;;;;;;;0.40;0.20;;;;;;;5.17;100.00;99778.50;5053874;28;20462;-73
2022/02/06 07:12:50;;;;;;;0.40;0.30;;;;;;;5.18;100.00;99777.44;5053887;28;20454;-72
2022/02/06 07:15:17;;;;;;;0.40;0.20;;;;;;;5.21;100.00;99766.13;5053440;28;21026;-72
2022/02/06 07:17:44;;;;;;;0.40;0.30;;;;;;;5.20;100.00;99764.53;5053486;28;20947;-72
2022/02/06 07:20:12;;;;;;;0.40;0.30;;;;;;;5.24;100.00;99767.44;5053684;28;20471;-72
2022/02/06 07:22:45;;;;;;;0.40;0.30;;;;;;;5.24;100.00;99759.38;5053731;28;20449;-71
2022/02/06 07:25:12;;;;;;;0.40;0.27;;;;;;;5.26;100.00;99758.00;5053846;28;20433;-72
2022/02/06 07:27:42;;;;;;;0.40;0.20;;;;;;;5.28;100.00;99755.84;5053604;28;20447;-72
2022/02/06 07:30:10;;;;;;;0.40;0.30;;;;;;;5.31;100.00;99763.34;5053512;28;20537;-71
2022/02/06 07:32:38;;;;;;;1.00;1.00;;;;;;;5.33;100.00;99755.00;5053575;28;20446;-71
2022/02/06 07:35:07;;;;;;;0.40;0.20;;;;;;;5.36;100.00;99749.06;5053381;28;20861;-71
2022/02/06 07:37:35;;;;;;;0.40;0.20;;;;;;;5.37;100.00;99739.09;5052426;28;20940;-72
2022/02/06 07:40:01;;;;;;;0.40;0.20;;;;;;;5.37;100.00;99736.44;5053349;28;20442;-71
2022/02/06 07:42:28;;;;;;;0.40;0.27;;;;;;;5.40;100.00;99735.81;5053423;28;20453;-71
2022/02/06 07:44:54;;;;;;;0.40;0.20;;;;;;;5.42;100.00;99741.72;5053390;28;20855;-72
2022/02/06 07:47:23;;;;;;;0.40;0.30;;;;;;;5.42;100.00;99734.47;5053336;28;20447;-71
2022/02/06 07:49:52;;;;;;;0.40;0.30;;;;;;;5.47;100.00;99729.03;5053324;28;20446;-71
2022/02/06 07:52:21;;;;;;;0.40;0.20;;;;;;;5.50;100.00;99728.47;5053386;28;20453;-71
2022/02/06 07:54:49;;;;;;;0.40;0.30;;;;;;;5.50;100.00;99724.97;5053263;28;20499;-71
2022/02/06 07:57:16;;;;;;;0.40;0.30;;;;;;;5.50;100.00;99719.59;5053257;28;20453;-72
2022/02/06 07:59:42;;;;;;;0.40;0.20;;;;;;;5.50;100.00;99720.41;5053171;28;20443;-72
2022/02/06 08:02:09;;;;;;;0.40;0.30;;;;;;;5.52;100.00;99718.22;5053093;28;20466;-72
2022/02/06 08:04:36;;;;;;;0.40;0.30;;;;;;;5.52;100.00;99712.06;5053147;28;20446;-73
2022/02/06 08:07:04;;;;;;;0.40;0.20;;;;;;;5.55;100.00;99725.69;5053117;28;20442;-73
2022/02/06 08:09:45;;;;;;;0.40;0.30;;;;;;;5.56;100.00;99721.13;5053177;28;20431;-73
2022/02/06 08:12:14;;;;;;;0.40;0.20;;;;;;;5.57;100.00;99704.72;5052799;28;20877;-73
2022/02/06 08:14:51;;;;;;;0.40;0.20;;;;;;;5.61;100.00;99698.78;5052830;28;21078;-73
2022/02/06 08:17:19;;;;;;;0.40;0.20;;;;;;;5.67;100.00;99695.75;5053096;28;20430;-73
2022/02/06 08:19:46;;;;;;;0.40;0.20;;;;;;;5.73;100.00;99699.94;5053056;28;20445;-73
2022/02/06 08:22:12;;;;;;;0.40;0.20;;;;;;;5.71;100.00;99694.06;5053018;28;20465;-73
2022/02/06 08:24:39;;;;;;;0.40;0.20;;;;;;;5.75;100.00;99689.69;5052990;28;20492;-73
2022/02/06 08:27:05;;;;;;;0.40;0.30;;;;;;;5.75;100.00;99695.06;5052935;28;20453;-73
2022/02/06 08:29:35;;;;;;;0.40;0.20;;;;;;;5.75;100.00;99683.53;5052935;28;20449;-72
2022/02/06 08:32:02;;;;;;;0.40;0.20;;;;;;;5.79;100.00;99676.47;5052819;28;20478;-72
2022/02/06 08:34:28;;;;;;;0.40;0.30;;;;;;;5.84;100.00;99671.03;5052875;28;20852;-72
2022/02/06 08:36:55;;;;;;;0.40;0.20;;;;;;;5.92;100.00;99672.28;5052690;28;20465;-72
2022/02/06 08:39:21;;;;;;;0.40;0.20;;;;;;;5.92;100.00;99667.72;5052819;28;20438;-73
2022/02/06 08:41:48;;;;;;;0.40;0.30;;;;;;;5.96;100.00;99660.66;5052514;28;20511;-72
2022/02/06 08:44:14;;;;;;;0.40;0.20;;;;;;;5.97;100.00;99664.94;5052745;28;20438;-72
2022/02/06 08:46:42;;;;;;;0.40;0.20;;;;;;;6.01;100.00;99662.47;5053137;28;20461;-72
2022/02/06 08:49:08;;;;;;;0.40;0.30;;;;;;;5.97;100.00;99658.75;5055753;28;20842;-72
2022/02/06 08:51:35;;;;;;;0.40;0.20;;;;;;;6.02;100.00;99656.81;5056512;28;20469;-73
2022/02/06 08:54:01;;;;;;;0.40;0.30;;;;;;;6.10;100.00;99657.22;5056469;28;20449;-72
2022/02/06 08:56:28;;;;;;;0.40;0.23;;;;;;;6.13;100.00;99652.06;5056494;28;20445;-73
2022/02/06 08:58:55;;;;;;;0.40;0.20;;;;;;;6.13;100.00;99657.44;5056416;28;20475;-74
2022/02/06 09:01:21;;;;;;;0.40;0.30;;;;;;;6.14;100.00;99647.47;5056698;28;20856;-74
2022/02/06 09:03:49;;;;;;;0.40;0.20;;;;;;;6.14;100.00;99656.34;5056359;28;20446;-73
2022/02/06 09:06:16;;;;;;;0.40;0.27;;;;;;;6.17;100.00;99641.53;5056305;28;20445;-72
2022/02/06 09:08:42;;;;;;;0.40;0.30;;;;;;;6.16;100.00;99659.53;5056251;28;20445;-72
2022/02/06 09:11:09;;;;;;;0.40;0.30;;;;;;;6.11;100.00;99643.50;5056131;28;20462;-73
2022/02/06 09:13:35;;;;;;;0.40;0.30;;;;;;;6.13;100.00;99629.75;5056021;28;20445;-72
2022/02/06 09:16:02;;;;;;;0.40;0.20;;;;;;;6.17;100.00;99634.25;5056015;28;20484;-71
2022/02/06 09:18:32;;;;;;;0.40;0.30;;;;;;;6.22;100.00;99636.06;5055666;28;20792;-73
2022/02/06 09:20:59;;;;;;;0.40;0.30;;;;;;;6.22;100.00;99623.41;5055873;28;20468;-73
2022/02/06 09:23:26;;;;;;;0.40;0.30;;;;;;;6.28;100.00;99616.81;5055950;28;20477;-73
2022/02/06 09:25:53;;;;;;;0.40;0.20;;;;;;;6.33;100.00;99629.41;5055592;28;20443;-73
2022/02/06 09:28:19;;;;;;;0.40;0.20;;;;;;;6.35;100.00;99631.78;5055908;28;20451;-73
2022/02/06 09:30:46;;;;;;;0.40;0.30;;;;;;;6.33;100.00;99624.03;5055764;28;20994;-73
2022/02/06 09:35:38;;;;;;;0.40;0.30;;;;;;;6.30;100.00;99611.19;5055461;28;20488;-73
2022/02/06 09:38:06;;;;;;;0.40;0.20;;;;;;;6.30;100.00;99608.50;5055523;28;20595;-73
2022/02/06 09:40:37;;;;;;;0.40;0.30;;;;;;;6.33;100.00;99602.53;5055537;28;20454;-73
2022/02/06 09:43:05;;;;;;;0.40;0.30;;;;;;;6.37;100.00;99605.38;5055239;28;20431;-72
2022/02/06 09:45:37;;;;;;;0.40;0.27;;;;;;;6.39;100.00;99595.94;5055505;28;20442;-73
2022/02/06 09:48:05;;;;;;;0.40;0.20;;;;;;;6.40;100.00;99591.34;5055497;28;20431;-72
2022/02/06 09:50:32;;;;;;;0.40;0.20;;;;;;;6.43;100.00;99591.56;5055409;28;20889;-73
2022/02/06 09:52:58;;;;;;;0.40;0.30;;;;;;;6.48;100.00;99579.91;5055195;28;20865;-73
2022/02/06 09:55:26;;;;;;;0.40;0.30;;;;;;;6.54;100.00;99571.44;5055084;28;21019;-73
2022/02/06 09:57:55;;;;;;;0.40;0.30;;;;;;;6.57;100.00;99572.75;5055095;28;20944;-72
2022/02/06 10:00:26;;;;;;;0.40;0.30;;;;;;;6.62;100.00;99567.25;5054328;28;20466;-72
2022/02/06 10:02:55;;;;;;;0.40;0.30;;;;;;;6.65;100.00;99565.88;5055217;28;20441;-72
2022/02/06 10:05:22;;;;;;;0.40;0.30;;;;;;;6.66;100.00;99556.69;5055158;28;20446;-72
2022/02/06 10:07:57;;;;;;;0.40;0.23;;;;;;;6.69;100.00;99564.97;5054775;28;20932;-73
2022/02/06 10:10:24;;;;;;;0.40;0.30;;;;;;;6.71;100.00;99548.50;5055012;28;20535;-72
2022/02/06 10:12:55;;;;;;;0.40;0.23;;;;;;;6.81;100.00;99546.38;5054740;28;20936;-72
2022/02/06 10:15:21;;;;;;;0.40;0.23;;;;;;;6.88;100.00;99545.22;5054954;28;20470;-73
2022/02/06 10:17:49;;;;;;;0.40;0.20;;;;;;;6.98;100.00;99540.38;5054983;28;20442;-73
2022/02/06 10:20:18;;;;;;;0.40;0.30;;;;;;;7.11;100.00;99525.31;5054537;28;20528;-73
2022/02/06 10:22:52;;;;;;;0.40;0.20;;;;;;;7.16;100.00;99519.78;5054853;28;20473;-73
2022/02/06 10:25:19;;;;;;;0.40;0.20;;;;;;;7.20;100.00;99514.59;5054849;28;20426;-73
2022/02/06 10:27:54;;;;;;;0.40;0.30;;;;;;;7.26;100.00;99508.81;5054799;28;20521;-73
2022/02/06 10:30:37;;;;;;;0.40;0.20;;;;;;;7.36;100.00;99515.06;5054727;28;20462;-72
2022/02/06 10:33:05;;;;;;;0.40;0.20;;;;;;;7.39;100.00;99509.81;5054685;28;20801;-72
2022/02/06 10:35:35;;;;;;;0.40;0.30;;;;;;;7.40;100.00;99497.97;5054207;28;20999;-73
2022/02/06 10:38:12;;;;;;;0.40;0.23;;;;;;;7.46;100.00;99495.94;5054608;28;20431;-72
2022/02/06 10:40:39;;;;;;;0.40;0.30;;;;;;;7.50;100.00;99488.84;5054515;28;20458;-72
2022/02/06 10:43:09;;;;;;;0.40;0.30;;;;;;;7.52;100.00;99476.63;5054557;28;20500;-72
2022/02/06 10:45:38;;;;;;;0.40;0.30;;;;;;;7.55;100.00;99469.84;5054530;28;20434;-72
2022/02/06 10:48:17;;;;;;;0.40;0.30;;;;;;;7.61;100.00;99473.19;5054408;28;20539;-74
2022/02/06 10:50:44;;;;;;;0.40;0.27;;;;;;;7.62;99.89;99459.44;5054348;28;20477;-72
2022/02/06 10:53:12;;;;;;;0.40;0.20;;;;;;;7.62;100.00;99448.66;5054262;28;20453;-73
2022/02/06 10:55:51;;;;;;;3.00;2.77;;;;;;;7.72;100.00;99447.59;5054167;28;20482;-73
2022/02/06 10:58:18;;;;;;;0.40;0.30;;;;;;;7.73;99.29;99447.28;5054288;28;20430;-72
2022/02/06 11:00:46;;;;;;;0.40;0.20;;;;;;;7.78;99.26;99443.66;5054151;28;20466;-74
2022/02/06 11:03:23;;;;;;;0.40;0.20;;;;;;;7.76;98.75;99430.47;5054062;28;20454;-69
2022/02/06 11:05:52;;;;;;;0.40;0.30;;;;;;;7.78;99.08;99422.88;5054187;28;20427;-71
2022/02/06 11:08:28;;;;;;;0.40;0.20;;;;;;;7.82;98.47;99426.53;5053656;28;20540;-71
2022/02/06 11:10:59;;;;;;;0.40;0.30;;;;;;;7.81;98.50;99408.78;5053999;28;20470;-71
2022/02/06 11:13:26;;;;;;;0.40;0.20;;;;;;;7.83;97.28;99403.88;5053929;28;20855;-71
2022/02/06 11:15:57;;;;;;;0.40;0.30;;;;;;;7.80;96.47;99404.50;5054497;28;20478;-71
2022/02/06 11:18:28;;;;;;;0.40;0.30;;;;;;;7.83;96.33;99393.09;5053864;28;20458;-71
2022/02/06 11:20:57;;;;;;;0.40;0.30;;;;;;;7.88;96.88;99383.25;5053434;28;20454;-72
2022/02/06 11:23:24;;;;;;;0.40;0.20;;;;;;;7.88;97.14;99380.56;5053684;28;20438;-72
2022/02/06 11:25:52;;;;;;;0.40;0.30;;;;;;;7.90;96.79;99381.84;5053729;28;20442;-72
2022/02/06 11:28:19;;;;;;;0.40;0.30;;;;;;;7.89;95.88;99371.38;5053618;28;20464;-72
2022/02/06 11:30:45;;;;;;;0.40;0.30;;;;;;;7.92;95.97;99359.97;5053557;28;20466;-73
2022/02/06 11:33:15;;;;;;;0.40;0.20;;;;;;;7.98;96.06;99350.63;5053505;28;20546;-73
2022/02/06 11:35:45;;;;;;;0.40;0.20;;;;;;;7.99;95.14;99349.53;5053142;28;20489;-73
2022/02/06 11:44:20;;;;;;;0.40;0.30;;;;;;;8.11;95.30;99327.34;5053545;28;20406;-71
2022/02/06 11:46:54;;;;;;;0.40;0.30;;;;;;;8.16;95.60;99309.09;5053078;28;20898;-72
2022/02/06 11:49:23;;;;;;;0.40;0.30;;;;;;;8.12;94.20;99316.22;5052956;28;20457;-73
2022/02/06 11:51:50;;;;;;;0.40;0.30;;;;;;;8.12;93.98;99305.44;5054334;28;20470;-72
2022/02/06 11:54:33;;;;;;;0.40;0.30;;;;;;;8.14;93.37;99308.59;5053179;28;20453;-72
2022/02/06 11:57:21;;;;;;;0.40;0.30;;;;;;;8.14;94.38;99297.81;5053158;28;20466;-73
2022/02/06 12:00:18;;;;;;;0.40;0.30;;;;;;;8.10;95.63;99286.06;5052546;28;20453;-73
2022/02/06 12:02:47;;;;;;;0.40;0.30;;;;;;;8.04;97.42;99281.97;5052428;28;20450;-73
2022/02/06 12:05:23;;;;;;;0.40;0.30;;;;;;;7.93;97.52;99281.47;5052546;28;20534;-72
2022/02/06 12:08:11;;;;;;;0.40;0.20;;;;;;;7.84;99.47;99280.69;5052555;28;20430;-72
2022/02/06 12:11:14;;;;;;;0.40;0.30;;;;;;;7.73;99.86;99261.28;5048657;28;20510;-72
2022/02/06 12:13:42;;;;;;;0.40;0.30;;;;;;;7.67;100.00;99254.47;5052398;28;20434;-73
2022/02/06 12:16:18;;;;;;;0.40;0.30;;;;;;;7.59;100.00;99244.47;5052402;28;20489;-73
2022/02/06 12:18:45;;;;;;;0.40;0.30;;;;;;;7.53;100.00;99240.34;5052443;28;20433;-72
2022/02/06 12:21:18;;;;;;;0.40;0.30;;;;;;;7.51;100.00;99234.47;5052375;28;20470;-73
2022/02/06 12:23:49;;;;;;;0.40;0.20;;;;;;;7.50;100.00;99220.22;5055143;28;20442;-73
2022/02/06 12:26:40;;;;;;;0.40;0.30;;;;;;;7.44;100.00;99221.47;5056303;28;20464;-72
2022/02/06 12:29:10;;;;;;;0.40;0.30;;;;;;;7.44;100.00;99212.59;5056434;28;20430;-72
2022/02/06 12:31:47;;;;;;;0.40;0.20;;;;;;;7.43;100.00;99213.69;5055924;28;21025;-72
2022/02/06 12:37:37;;;;;;;0.40;0.30;;;;;;;7.38;100.00;99176.91;5056012;28;20942;-71
2022/02/06 12:40:07;;;;;;;0.40;0.30;;;;;;;7.40;100.00;99169.34;5055803;28;20761;-71
2022/02/06 12:42:38;;;;;;;0.40;0.20;;;;;;;7.45;100.00;99171.06;5055853;28;20449;-72
2022/02/06 12:45:06;;;;;;;0.40;0.30;;;;;;;7.47;100.00;99147.31;5055856;28;20489;-72
2022/02/06 12:47:38;;;;;;;0.40;0.30;;;;;;;7.51;100.00;99140.16;5055682;28;20943;-71
2022/02/06 12:50:13;;;;;;;0.40;0.20;;;;;;;7.51;100.00;99142.88;5056040;28;20430;-72
2022/02/06 12:52:41;;;;;;;0.40;0.20;;;;;;;7.50;100.00;99123.22;5056275;28;20434;-71
2022/02/06 12:55:09;;;;;;;0.40;0.30;;;;;;;7.54;100.00;99121.47;5056162;28;20446;-72
2022/02/06 12:57:46;;;;;;;0.40;0.20;;;;;;;7.58;100.00;99113.56;5055877;28;20485;-71
2022/02/06 13:00:34;;;;;;;0.40;0.20;;;;;;;7.61;100.00;99106.72;5055556;28;20468;-72
2022/02/06 13:03:19;;;;;;;0.40;0.30;;;;;;;7.63;100.00;99091.84;5055836;28;20445;-72
2022/02/06 13:05:50;;;;;;;0.40;0.30;;;;;;;7.64;99.62;99068.38;5055674;28;20438;-71
2022/02/06 13:08:18;;;;;;;0.40;0.30;;;;;;;7.62;99.94;99063.31;5055580;28;20497;-71
2022/02/06 13:10:53;;;;;;;0.40;0.27;;;;;;;7.60;99.68;99060.13;5055307;28;20963;-72
2022/02/06 13:13:24;;;;;;;0.40;0.30;;;;;;;7.61;100.00;99055.53;5055219;28;20538;-72
2022/02/06 13:15:58;;;;;;;0.40;0.20;;;;;;;7.58;99.06;99035.41;5055590;28;20560;-71
2022/02/06 13:18:50;;;;;;;0.40;0.30;;;;;;;7.62;99.14;99035.59;5055182;28;20431;-72